createdAt,value
2022-11-01T00:01:57.701Z,8.70
2022-11-01T00:04:24.607Z,8.80
2022-11-01T00:06:51.339Z,8.80
2022-11-01T00:09:18.305Z,8.70
2022-11-01T00:11:45.003Z,8.40
2022-11-01T00:14:12.779Z,8.10
2022-11-01T00:16:39.489Z,8.10
2022-11-01T00:19:06.141Z,8.70
2022-11-01T00:21:32.790Z,9.80
2022-11-01T00:23:59.453Z,8.70
2022-11-01T00:26:27.064Z,8.60
2022-11-01T00:28:54.059Z,9.00
2022-11-01T00:31:21.120Z,7.90
2022-11-01T00:33:48.068Z,10.00
2022-11-01T00:38:41.788Z,8.70
2022-11-01T00:41:08.503Z,8.70
2022-11-01T00:43:35.846Z,8.70
2022-11-01T00:46:03.134Z,8.60
2022-11-01T00:48:29.822Z,8.50
2022-11-01T00:50:56.562Z,8.50
2022-11-01T00:53:23.300Z,9.30
2022-11-01T00:55:49.959Z,8.30
2022-11-01T00:58:16.633Z,8.50
2022-11-01T01:00:43.386Z,8.50
2022-11-01T01:03:10.365Z,8.60
2022-11-01T01:05:37.064Z,9.20
2022-11-01T01:08:03.889Z,8.40
2022-11-01T01:10:30.617Z,8.40
2022-11-01T01:12:57.457Z,9.30
2022-11-01T01:15:24.239Z,9.50
2022-11-01T01:17:50.910Z,8.60
2022-11-01T01:20:17.657Z,9.30
2022-11-01T01:22:44.444Z,8.40
2022-11-01T01:25:11.163Z,7.80
2022-11-01T01:27:37.913Z,7.50
2022-11-01T01:30:05.555Z,9.00
2022-11-01T01:32:32.353Z,8.20
2022-11-01T01:34:59.032Z,8.20
2022-11-01T01:37:25.682Z,9.30
2022-11-01T01:39:52.361Z,9.10
2022-11-01T01:42:39.082Z,9.50
2022-11-01T01:45:06.794Z,8.40
2022-11-01T01:47:34.813Z,9.50
2022-11-01T01:50:04.456Z,8.40
2022-11-01T01:52:32.512Z,8.50
2022-11-01T01:55:01.476Z,8.40
2022-11-01T01:57:28.467Z,8.40
2022-11-01T01:59:55.113Z,9.20
2022-11-01T02:02:21.973Z,9.10
2022-11-01T02:04:52.130Z,8.30
2022-11-01T02:07:18.730Z,8.20
2022-11-01T02:09:45.542Z,8.30
2022-11-01T02:12:12.612Z,8.30
2022-11-01T02:14:42.243Z,9.10
2022-11-01T02:17:15.137Z,9.30
2022-11-01T02:20:05.660Z,8.20
2022-11-01T02:22:51.077Z,8.30
2022-11-01T02:25:17.971Z,8.30
2022-11-01T02:31:21.100Z,8.40
2022-11-01T02:33:49.867Z,8.40
2022-11-01T02:36:20.193Z,8.40
2022-11-01T02:38:48.753Z,8.40
2022-11-01T02:41:24.921Z,8.40
2022-11-01T02:43:57.981Z,8.50
2022-11-01T02:46:44.406Z,8.40
2022-11-01T02:49:12.745Z,8.30
2022-11-01T02:51:39.879Z,8.50
2022-11-01T02:54:10.662Z,8.40
2022-11-01T02:56:38.554Z,8.30
2022-11-01T02:59:06.311Z,8.30
2022-11-01T03:01:34.565Z,9.40
2022-11-01T03:04:01.635Z,8.10
2022-11-01T03:06:32.764Z,8.00
2022-11-01T03:09:04.695Z,9.30
2022-11-01T03:11:47.517Z,6.90
2022-11-01T03:14:35.406Z,8.10
2022-11-01T03:17:04.993Z,8.20
2022-11-01T03:19:37.635Z,8.20
2022-11-01T03:22:10.486Z,8.10
2022-11-01T03:24:40.707Z,8.10
2022-11-01T03:27:16.803Z,8.90
2022-11-01T03:29:45.740Z,8.00
2022-11-01T03:32:14.049Z,8.00
2022-11-01T03:34:40.805Z,7.70
2022-11-01T03:37:11.294Z,8.00
2022-11-01T03:39:40.972Z,8.10
2022-11-01T03:42:09.528Z,8.10
2022-11-01T03:44:41.759Z,8.10
2022-11-01T03:47:09.071Z,8.10
2022-11-01T03:49:35.658Z,8.10
2022-11-01T03:52:02.275Z,8.10
2022-11-01T03:54:29.271Z,8.10
2022-11-01T03:56:55.951Z,8.00
2022-11-01T03:59:25.607Z,8.00
2022-11-01T04:01:52.834Z,7.90
2022-11-01T04:04:19.615Z,8.90
2022-11-01T04:06:46.265Z,8.00
2022-11-01T04:09:12.923Z,8.00
2022-11-01T04:11:39.581Z,8.50
2022-11-01T04:14:24.843Z,8.10
2022-11-01T04:17:10.065Z,8.10
2022-11-01T04:19:55.143Z,9.40
2022-11-01T04:22:24.493Z,9.20
2022-11-01T04:24:51.422Z,8.10
2022-11-01T04:27:18.013Z,8.20
2022-11-01T04:29:44.612Z,8.30
2022-11-01T04:32:11.213Z,8.30
2022-11-01T04:34:43.777Z,8.20
2022-11-01T04:37:11.413Z,8.00
2022-11-01T04:39:38.055Z,8.10
2022-11-01T04:42:05.445Z,7.90
2022-11-01T04:44:32.022Z,8.10
2022-11-01T04:46:58.612Z,8.00
2022-11-01T04:49:25.239Z,7.90
2022-11-01T04:51:51.877Z,8.50
2022-11-01T04:54:18.483Z,7.90
2022-11-01T04:56:45.116Z,9.20
2022-11-01T04:59:11.700Z,8.20
2022-11-01T05:01:38.349Z,8.20
2022-11-01T05:04:06.852Z,8.30
2022-11-01T05:06:33.499Z,8.30
2022-11-01T05:09:00.128Z,9.40
2022-11-01T05:11:26.799Z,8.40
2022-11-01T05:13:53.415Z,8.20
2022-11-01T05:16:21.177Z,8.20
2022-11-01T05:18:48.026Z,8.40
2022-11-01T05:21:14.644Z,8.10
2022-11-01T05:23:41.243Z,8.10
2022-11-01T05:26:07.906Z,8.40
2022-11-01T05:28:34.890Z,8.40
2022-11-01T05:31:01.555Z,8.40
2022-11-01T05:33:28.158Z,8.20
2022-11-01T05:35:54.792Z,9.60
2022-11-01T05:38:21.453Z,8.50
2022-11-01T05:40:48.207Z,8.40
2022-11-01T05:43:14.878Z,9.10
2022-11-01T05:45:41.573Z,8.50
2022-11-01T05:48:08.403Z,8.60
2022-11-01T05:50:34.992Z,8.60
2022-11-01T05:53:05.952Z,8.60
2022-11-01T05:55:32.604Z,8.60
2022-11-01T05:57:59.257Z,8.50
2022-11-01T06:00:25.816Z,9.60
2022-11-01T06:02:53.010Z,8.60
2022-11-01T06:05:23.985Z,8.60
2022-11-01T06:11:03.222Z,8.50
2022-11-01T06:13:30.624Z,8.50
2022-11-01T06:15:58.449Z,8.50
2022-11-01T06:18:31.081Z,8.60
2022-11-01T06:20:58.461Z,9.50
2022-11-01T06:23:25.138Z,8.40
2022-11-01T06:25:58.676Z,8.50
2022-11-01T06:28:25.306Z,8.50
2022-11-01T06:30:51.907Z,8.60
2022-11-01T06:33:18.507Z,8.70
2022-11-01T06:35:45.060Z,8.60
2022-11-01T06:38:11.668Z,8.70
2022-11-01T06:40:38.237Z,8.70
2022-11-01T06:43:06.001Z,8.70
2022-11-01T06:45:33.026Z,10.10
2022-11-01T06:48:02.957Z,9.00
2022-11-01T06:50:49.920Z,9.10
2022-11-01T06:53:16.517Z,9.10
2022-11-01T06:55:43.108Z,9.10
2022-11-01T06:58:09.762Z,9.10
2022-11-01T07:00:36.324Z,9.10
2022-11-01T07:03:04.653Z,8.90
2022-11-01T07:05:36.051Z,9.20
2022-11-01T07:08:05.472Z,9.20
2022-11-01T07:10:32.409Z,9.40
2022-11-01T07:12:59.441Z,10.30
2022-11-01T07:15:26.292Z,8.30
2022-11-01T07:17:56.637Z,8.30
2022-11-01T07:20:23.627Z,9.60
2022-11-01T07:23:00.574Z,8.50
2022-11-01T07:25:27.871Z,9.70
2022-11-01T07:27:55.335Z,9.90
2022-11-01T07:30:22.114Z,10.00
2022-11-01T07:32:48.875Z,9.70
2022-11-01T07:35:15.468Z,9.40
2022-11-01T07:37:42.077Z,9.90
2022-11-01T07:40:08.862Z,9.10
2022-11-01T07:42:40.799Z,10.30
2022-11-01T07:45:12.750Z,10.20
2022-11-01T07:47:39.575Z,10.40
2022-11-01T07:50:06.855Z,10.60
2022-11-01T07:52:33.404Z,10.70
2022-11-01T07:54:59.948Z,10.70
2022-11-01T07:57:26.469Z,10.80
2022-11-01T07:59:52.965Z,11.00
2022-11-01T08:02:19.622Z,11.00
2022-11-01T08:04:46.359Z,11.10
2022-11-01T08:07:12.912Z,11.10
2022-11-01T08:09:39.448Z,11.30
2022-11-01T08:12:06.776Z,11.30
2022-11-01T08:14:33.329Z,11.40
2022-11-01T08:17:01.663Z,11.60
2022-11-01T08:19:28.351Z,11.50
2022-11-01T08:21:58.740Z,11.50
2022-11-01T08:24:25.628Z,11.80
2022-11-01T08:26:52.706Z,11.90
2022-11-01T08:29:19.610Z,12.10
2022-11-01T08:31:47.436Z,12.10
2022-11-01T08:34:16.874Z,12.30
2022-11-01T08:36:43.942Z,12.40
2022-11-01T08:39:10.526Z,12.40
2022-11-01T08:41:48.165Z,12.60
2022-11-01T08:44:15.981Z,12.80
2022-11-01T08:46:43.707Z,13.10
2022-11-01T08:49:10.724Z,12.30
2022-11-01T08:51:37.432Z,13.00
2022-11-01T08:54:05.161Z,13.00
2022-11-01T08:56:31.752Z,13.00
2022-11-01T08:58:58.920Z,14.10
2022-11-01T09:01:27.086Z,13.40
2022-11-01T09:03:57.839Z,13.40
2022-11-01T09:06:24.802Z,13.50
2022-11-01T09:08:53.409Z,13.30
2022-11-01T09:11:20.374Z,13.70
2022-11-01T09:13:47.040Z,13.50
2022-11-01T09:16:13.669Z,13.20
2022-11-01T09:18:40.590Z,13.30
2022-11-01T09:21:07.767Z,14.40
2022-11-01T09:26:02.727Z,14.30
2022-11-01T09:28:33.686Z,14.40
2022-11-01T09:31:20.026Z,15.30
2022-11-01T09:33:47.791Z,14.50
2022-11-01T09:36:14.330Z,16.30
2022-11-01T09:38:40.903Z,16.40
2022-11-01T09:43:35.742Z,15.50
2022-11-01T09:46:04.320Z,16.70
2022-11-01T09:48:31.673Z,16.70
2022-11-01T09:50:59.590Z,15.70
2022-11-01T09:53:27.590Z,16.50
2022-11-01T09:56:05.386Z,16.80
2022-11-01T09:58:50.703Z,15.90
2022-11-01T10:01:34.933Z,16.20
2022-11-01T10:04:37.178Z,16.20
2022-11-01T10:10:37.658Z,16.30
2022-11-01T10:13:04.752Z,16.40
2022-11-01T10:16:28.699Z,16.50
2022-11-01T10:31:50.742Z,16.60
2022-11-01T10:34:20.631Z,16.70
2022-11-01T10:39:53.235Z,17.00
2022-11-01T10:42:08.899Z,17.90
2022-11-01T10:44:55.776Z,16.90
2022-11-01T10:47:23.813Z,17.20
2022-11-01T10:50:05.330Z,17.10
2022-11-01T10:52:40.868Z,17.40
2022-11-01T10:55:08.047Z,16.10
2022-11-01T10:57:40.679Z,16.40
2022-11-01T11:00:14.063Z,16.40
2022-11-01T11:02:44.509Z,16.30
2022-11-01T11:05:17.578Z,16.30
2022-11-01T11:07:44.789Z,16.20
2022-11-01T11:10:19.655Z,16.40
2022-11-01T11:12:58.492Z,16.40
2022-11-01T11:19:30.328Z,16.40
2022-11-01T11:21:57.701Z,16.50
2022-11-01T11:24:34.225Z,16.50
2022-11-01T11:27:02.185Z,16.70
2022-11-01T11:29:35.208Z,17.40
2022-11-01T11:32:02.946Z,16.50
2022-11-01T11:34:34.392Z,16.60
2022-11-01T11:37:01.947Z,16.70
2022-11-01T11:39:37.813Z,17.10
2022-11-01T11:42:14.651Z,16.70
2022-11-01T11:44:43.090Z,16.70
2022-11-01T11:47:34.494Z,16.60
2022-11-01T11:50:15.771Z,16.80
2022-11-01T11:52:42.481Z,16.90
2022-11-01T11:55:28.031Z,17.00
2022-11-01T11:57:55.228Z,16.90
2022-11-01T12:00:23.515Z,17.20
2022-11-01T12:02:50.285Z,16.90
2022-11-01T12:05:17.900Z,17.10
2022-11-01T12:07:49.120Z,17.20
2022-11-01T12:10:27.805Z,17.30
2022-11-01T12:12:54.376Z,17.40
2022-11-01T12:15:25.589Z,17.60
2022-11-01T12:17:52.260Z,17.60
2022-11-01T12:20:20.072Z,17.60
2022-11-01T12:23:10.891Z,17.70
2022-11-01T12:25:38.354Z,18.00
2022-11-01T12:28:21.699Z,18.50
2022-11-01T12:30:49.516Z,18.70
2022-11-01T12:33:27.758Z,18.70
2022-11-01T12:35:54.914Z,19.30
2022-11-01T12:38:43.928Z,19.20
2022-11-01T12:41:15.471Z,19.00
2022-11-01T12:43:45.018Z,19.20
2022-11-01T12:46:18.275Z,19.90
2022-11-01T12:48:47.101Z,20.10
2022-11-01T12:51:18.665Z,20.40
2022-11-01T12:53:59.418Z,21.10
2022-11-01T12:56:26.901Z,19.80
2022-11-01T12:58:54.973Z,19.90
2022-11-01T13:01:30.770Z,20.40
2022-11-01T13:04:12.802Z,19.50
2022-11-01T13:06:42.531Z,18.70
2022-11-01T13:09:44.787Z,18.90
2022-11-01T13:12:17.195Z,18.60
2022-11-01T13:15:03.367Z,18.60
2022-11-01T13:17:32.982Z,18.90
2022-11-01T13:20:05.477Z,18.20
2022-11-01T13:22:46.987Z,17.00
2022-11-01T13:25:22.734Z,17.70
2022-11-01T13:28:18.843Z,19.10
2022-11-01T13:30:50.733Z,17.20
2022-11-01T13:33:20.371Z,17.10
2022-11-01T13:35:47.115Z,17.10
2022-11-01T13:38:17.512Z,17.30
2022-11-01T13:40:51.802Z,17.40
2022-11-01T13:43:21.796Z,17.70
2022-11-01T13:45:51.369Z,18.20
2022-11-01T13:48:27.215Z,18.00
2022-11-01T13:51:03.039Z,18.60
2022-11-01T13:53:32.552Z,19.10
2022-11-01T13:56:02.366Z,19.80
2022-11-01T13:58:28.943Z,20.10
2022-11-01T14:10:48.216Z,22.80
2022-11-01T14:13:16.331Z,22.90
2022-11-01T14:15:55.119Z,23.20
2022-11-01T14:18:22.057Z,22.90
2022-11-01T14:20:50.412Z,22.90
2022-11-01T14:28:16.900Z,22.10
2022-11-01T14:33:13.811Z,20.80
2022-11-01T14:35:41.017Z,19.80
2022-11-01T14:38:13.577Z,20.30
2022-11-01T14:40:53.488Z,20.60
2022-11-01T14:43:24.087Z,20.90
2022-11-01T14:46:11.216Z,21.40
2022-11-01T14:51:44.753Z,21.80
2022-11-01T14:54:30.179Z,21.70
2022-11-01T14:56:57.560Z,21.60
2022-11-01T14:59:32.063Z,20.20
2022-11-01T15:02:03.066Z,19.70
2022-11-01T15:04:31.568Z,20.20
2022-11-01T15:06:58.775Z,19.10
2022-11-01T15:09:29.855Z,19.50
2022-11-01T15:12:04.678Z,19.70
2022-11-01T15:14:35.456Z,18.80
2022-11-01T15:17:02.129Z,18.10
2022-11-01T15:22:01.020Z,17.60
2022-11-01T15:24:27.779Z,17.50
2022-11-01T15:29:23.098Z,16.90
2022-11-01T15:31:56.259Z,16.80
2022-11-01T15:34:24.363Z,16.80
2022-11-01T15:36:51.312Z,17.90
2022-11-01T15:39:22.543Z,18.20
2022-11-01T15:41:49.855Z,17.20
2022-11-01T15:44:26.537Z,16.60
2022-11-01T15:49:25.087Z,16.10
2022-11-01T15:51:54.091Z,15.80
2022-11-01T15:54:20.644Z,17.00
2022-11-01T15:56:51.231Z,15.60
2022-11-01T15:59:30.212Z,15.70
2022-11-01T16:02:00.785Z,14.70
2022-11-01T16:04:30.673Z,15.80
2022-11-01T16:07:06.247Z,14.30
2022-11-01T16:09:42.030Z,14.20
2022-11-01T16:12:17.339Z,14.10
2022-11-01T16:14:44.231Z,15.60
2022-11-01T16:17:22.811Z,13.80
2022-11-01T16:19:51.489Z,13.70
2022-11-01T16:22:29.338Z,13.60
2022-11-01T16:25:02.528Z,13.60
2022-11-01T18:18:03.821Z,11.60
2022-11-01T18:23:01.861Z,11.40
2022-11-01T18:25:31.618Z,12.70
2022-11-01T18:30:25.742Z,11.20
2022-11-01T18:32:56.289Z,11.80
2022-11-01T18:40:25.440Z,10.80
2022-11-01T18:42:52.428Z,10.60
2022-11-01T18:45:25.570Z,12.00
2022-11-01T18:48:08.328Z,10.30
2022-11-01T18:50:38.474Z,11.60
2022-11-01T18:53:12.204Z,10.20
2022-11-01T18:55:39.457Z,10.30
2022-11-01T18:58:24.373Z,10.10
2022-11-01T19:01:02.471Z,10.30
2022-11-01T19:03:29.527Z,10.30
2022-11-01T19:06:22.347Z,10.20
2022-11-01T19:08:54.423Z,10.30
2022-11-01T19:11:21.119Z,10.10
2022-11-01T19:13:49.438Z,11.30
2022-11-01T19:18:44.450Z,9.30
2022-11-01T19:21:15.670Z,9.90
2022-11-01T19:23:43.152Z,9.40
2022-11-01T19:26:27.009Z,8.90
2022-11-01T19:28:54.037Z,9.40
2022-11-01T19:31:26.286Z,8.80
2022-11-01T19:33:56.923Z,9.40
2022-11-01T19:36:24.762Z,8.80
2022-11-01T19:38:53.098Z,9.90
2022-11-01T19:41:26.502Z,8.90
2022-11-01T19:43:56.050Z,9.30
2022-11-01T19:46:22.736Z,10.90
2022-11-01T19:48:49.712Z,11.50
2022-11-01T19:51:21.393Z,11.30
2022-11-01T19:53:49.229Z,9.60
2022-11-01T19:56:26.278Z,11.50
2022-11-01T19:59:00.372Z,8.50
2022-11-01T20:01:30.141Z,9.10
2022-11-01T20:03:57.996Z,9.00
2022-11-01T20:06:29.839Z,8.60
2022-11-01T20:08:58.098Z,8.70
2022-11-01T20:11:24.727Z,10.00
2022-11-01T20:13:51.355Z,9.70
2022-11-01T20:16:18.029Z,10.40
2022-11-01T20:18:44.721Z,10.00
2022-11-01T20:21:11.394Z,9.90
2022-11-01T20:23:38.920Z,8.40
2022-11-01T20:26:05.759Z,8.50
2022-11-01T20:28:32.751Z,10.40
2022-11-01T20:30:59.387Z,8.60
2022-11-01T20:40:47.008Z,7.90
2022-11-01T20:43:13.650Z,8.60
2022-11-01T20:45:40.593Z,8.30
2022-11-01T20:48:10.248Z,8.00
2022-11-01T20:50:36.889Z,7.90
2022-11-01T20:53:05.473Z,8.60
2022-11-01T20:55:32.526Z,8.10
2022-11-01T20:57:59.228Z,9.10
2022-11-01T21:00:26.953Z,7.80
2022-11-01T21:02:54.808Z,8.60
2022-11-01T21:05:21.435Z,8.30
2022-11-01T21:07:48.384Z,7.70
2022-11-01T21:10:31.924Z,7.90
2022-11-01T21:13:00.231Z,8.00
2022-11-01T21:15:45.654Z,7.80
2022-11-01T21:18:12.248Z,7.70
2022-11-01T21:20:40.226Z,7.30
2022-11-01T21:23:32.206Z,7.30
2022-11-01T21:26:06.177Z,7.30
2022-11-01T21:28:34.301Z,7.20
2022-11-01T21:31:07.146Z,6.80
2022-11-01T21:33:36.461Z,7.10
2022-11-01T21:36:14.044Z,7.10
2022-11-01T21:38:41.532Z,7.20
2022-11-01T21:41:27.027Z,8.40
2022-11-01T21:43:53.669Z,7.30
2022-11-01T21:46:21.019Z,7.20
2022-11-01T21:48:47.981Z,7.20
2022-11-01T21:51:14.627Z,7.20
2022-11-01T21:53:41.278Z,6.80
2022-11-01T21:56:08.030Z,8.00
2022-11-01T21:58:34.682Z,7.00
2022-11-01T22:01:01.338Z,6.60
2022-11-01T22:03:28.020Z,7.00
2022-11-01T22:05:54.636Z,6.90
2022-11-01T22:08:21.302Z,6.80
2022-11-01T22:10:47.960Z,7.80
2022-11-01T22:13:14.600Z,7.30
2022-11-01T22:20:35.286Z,7.40
2022-11-01T22:23:02.200Z,7.10
2022-11-01T22:27:56.188Z,6.30
2022-11-01T22:37:43.936Z,7.70
2022-11-01T22:40:11.329Z,8.20
2022-11-01T22:42:37.933Z,6.60
2022-11-01T22:45:11.844Z,6.30
2022-11-01T22:47:39.380Z,8.00
2022-11-01T22:50:09.717Z,8.20
2022-11-01T22:52:41.932Z,6.70
2022-11-01T22:55:11.698Z,6.60
2022-11-01T22:57:50.398Z,6.50
2022-11-01T23:00:27.828Z,6.50
2022-11-01T23:03:02.849Z,6.60
2022-11-01T23:05:29.956Z,6.60
2022-11-01T23:07:58.028Z,6.00
2022-11-01T23:10:29.215Z,5.90
2022-11-01T23:13:30.004Z,5.90
2022-11-01T23:16:11.424Z,6.40
2022-11-01T23:18:39.481Z,6.30
2022-11-01T23:21:07.016Z,6.00
2022-11-01T23:23:35.513Z,5.80
2022-11-01T23:26:02.740Z,6.10
2022-11-01T23:28:29.928Z,7.00
2022-11-01T23:30:56.660Z,5.90
2022-11-01T23:53:15.963Z,5.80
2022-11-01T23:55:52.103Z,5.80
2022-11-01T23:58:20.478Z,5.90
